.
WxDataArchive / Data Records for 2007-06-13
2007-06-12 June 2007 2007-06-14

Data Records for Wednesday, 13 June 2007

Time	Temp	Chill	HIndex	Humid	Dewpt	 Wind 	HiWind	WindDir	Rain 	Barom 
-----	----	-----	------	-----	-----	------	------	-------	-----	----- 
00:00	64.3	64.3	64.3	76	56.6	0	0	---	0.00	30.067 
00:05	64.3	64.3	64.3	76	56.6	0	0	---	0.00	30.065 
00:10	64.5	64.5	64.5	76	56.8	0	0	---	0.00	30.066 
00:15	64.5	64.5	64.5	76	56.8	0	0	---	0.00	30.066 
00:20	64.7	64.7	64.7	76	57.0	0	0	---	0.00	30.065 
00:25	64.7	64.7	64.7	76	57.0	0	0	---	0.00	30.063 
00:30	64.7	64.7	64.7	76	57.0	0	0	---	0.00	30.062 
00:35	64.7	64.7	64.7	76	57.0	0	0	---	0.00	30.060 
00:40	64.7	64.7	64.7	76	57.0	0	0	---	0.00	30.061 
00:45	64.7	64.7	64.7	75	56.6	0	0	---	0.00	30.056 
00:50	64.5	64.5	64.5	75	56.4	0	0	---	0.00	30.055 
00:55	64.5	64.5	64.5	75	56.4	0	0	---	0.00	30.056 
01:00	64.3	64.3	64.3	75	56.2	0	0	---	0.00	30.055 
01:05	64.2	64.2	64.2	76	56.5	0	0	---	0.00	30.053 
01:10	64.0	64.0	64.0	76	56.3	0	0	---	0.00	30.052 
01:15	63.9	63.9	63.9	77	56.5	0	0	---	0.00	30.051 
01:20	63.7	63.7	63.7	77	56.3	0	0	---	0.00	30.050 
01:25	63.5	63.5	63.5	77	56.2	0	0	---	0.00	30.049 
01:30	63.2	63.2	63.2	78	56.2	0	0	---	0.00	30.050 
01:35	63.1	63.1	63.1	78	56.1	0	0	---	0.00	30.050 
01:40	62.9	62.9	62.9	79	56.3	0	0	---	0.00	30.049 
01:45	62.6	62.6	62.6	80	56.3	0	0	---	0.00	30.050 
01:50	62.4	62.4	62.4	80	56.1	0	0	---	0.00	30.048 
01:55	62.3	62.3	62.3	80	56.0	0	0	---	0.00	30.042 
02:00	62.1	62.1	62.1	80	55.9	0	0	---	0.00	30.040 
02:05	62.1	62.1	62.1	81	56.2	0	0	---	0.00	30.044 
02:10	62.1	62.1	62.1	81	56.2	0	0	---	0.00	30.041 
02:15	62.0	62.0	62.0	81	56.1	0	0	---	0.00	30.039 
02:20	62.0	62.0	62.0	81	56.1	0	0	---	0.00	30.040 
02:25	61.8	61.8	61.8	81	55.9	0	0	---	0.00	30.043 
02:30	61.6	61.6	61.6	82	56.0	0	0	---	0.00	30.044 
02:35	61.5	61.5	61.5	81	55.6	0	0	---	0.00	30.044 
02:40	61.5	61.5	61.5	81	55.6	0	0	---	0.00	30.045 
02:45	61.5	61.5	61.5	81	55.6	0	0	---	0.00	30.046 
02:50	61.3	61.3	61.3	82	55.8	0	0	---	0.00	30.047 
02:55	61.3	61.3	61.3	82	55.8	0	0	---	0.00	30.047 
03:00	61.2	61.2	61.2	82	55.7	0	0	---	0.00	30.044 
03:05	61.0	61.0	61.0	82	55.5	0	0	---	0.00	30.042 
03:10	60.9	60.9	60.9	82	55.4	0	0	---	0.00	30.042 
03:15	60.7	60.7	60.7	83	55.5	0	0	---	0.00	30.041 
03:20	60.5	60.5	60.5	83	55.3	0	0	---	0.00	30.041 
03:25	60.5	60.5	60.5	83	55.3	0	0	---	0.00	30.042 
03:30	60.4	60.4	60.4	83	55.2	0	0	---	0.00	30.043 
03:35	60.2	60.2	60.2	84	55.3	0	0	---	0.00	30.046 
03:40	60.1	60.1	60.1	84	55.2	0	0	---	0.00	30.050 
03:45	59.9	59.9	59.9	84	55.0	0	0	---	0.00	30.051 
03:50	59.9	59.9	59.9	84	55.0	0	0	---	0.00	30.051 
03:55	59.8	59.8	59.8	84	55.0	0	0	---	0.00	30.052 
04:00	59.8	59.8	59.8	85	55.3	0	0	---	0.00	30.053 
04:05	59.6	59.6	59.6	85	55.1	0	0	---	0.00	30.052 
04:10	59.5	59.5	59.5	85	55.0	0	0	---	0.00	30.050 
04:15	59.3	59.3	59.3	85	54.8	0	0	---	0.00	30.049 
04:20	59.3	59.3	59.3	86	55.1	0	0	---	0.00	30.048 
04:25	59.3	59.3	59.3	86	55.1	0	0	---	0.00	30.043 
04:30	59.3	59.3	59.3	86	55.1	0	0	---	0.00	30.044 
04:35	59.3	59.3	59.3	86	55.1	0	0	---	0.00	30.045 
04:40	59.2	59.2	59.2	86	55.0	0	0	---	0.00	30.043 
04:45	59.2	59.2	59.2	86	55.0	0	0	---	0.00	30.042 
04:50	59.0	59.0	59.0	87	55.1	0	0	---	0.00	30.042 
04:55	58.9	58.9	58.9	87	55.0	0	0	---	0.00	30.044 
05:00	58.9	58.9	58.9	87	55.0	0	0	---	0.00	30.049 
05:05	58.7	58.7	58.7	87	54.8	0	0	---	0.00	30.054 
05:10	58.7	58.7	58.7	87	54.8	0	0	---	0.00	30.055 
05:15	58.6	58.6	58.6	87	54.7	0	0	---	0.00	30.056 
05:20	58.6	58.6	58.6	87	54.7	0	0	---	0.00	30.057 
05:25	58.6	58.6	58.6	87	54.7	0	0	---	0.00	30.057 
05:30	58.7	58.7	58.7	87	54.8	0	0	---	0.00	30.057 
05:35	58.9	58.9	58.9	86	54.7	0	0	---	0.00	30.059 
05:40	59.0	59.0	59.0	86	54.8	0	0	---	0.00	30.062 
05:45	59.3	59.3	59.3	85	54.8	0	0	---	0.00	30.065 
05:50	59.8	59.8	59.8	85	55.3	0	0	---	0.00	30.065 
05:55	59.9	59.9	59.9	84	55.0	0	0	---	0.00	30.067 
06:00	60.1	60.1	60.1	84	55.2	0	0	---	0.00	30.068 
06:05	60.4	60.4	60.4	83	55.2	0	0	---	0.00	30.071 
06:10	60.9	60.9	60.9	82	55.4	0	0	---	0.00	30.070 
06:15	61.3	61.3	61.3	81	55.4	0	0	---	0.00	30.070 
06:20	61.8	61.8	61.8	79	55.2	0	0	---	0.00	30.069 
06:25	62.6	62.6	62.6	76	54.9	0	0	---	0.00	30.069 
06:30	63.9	63.9	63.9	72	54.7	0	0	---	0.00	30.067 
06:35	65.3	65.3	65.3	70	55.3	0	1	68	0.00	30.062 
06:40	66.9	66.9	66.9	65	54.7	0	2	68	0.00	30.061 
06:45	68.1	68.1	68.1	61	54.1	0	1	68	0.00	30.063 
06:50	69.1	69.1	69.1	60	54.6	0	2	68	0.00	30.062 
06:55	69.8	69.8	69.8	57	53.9	0	2	68	0.00	30.063 
07:00	70.4	70.4	70.4	57	54.4	0	1	68	0.00	30.064 
07:05	70.9	70.9	70.9	54	53.4	1	3	68	0.00	30.066 
07:10	71.1	71.1	71.1	56	54.6	1	2	90	0.00	30.065 
07:15	71.5	71.5	71.5	54	54.0	1	3	90	0.00	30.065 
07:20	71.8	71.8	71.8	54	54.2	1	3	90	0.00	30.062 
07:25	72.0	72.0	72.0	52	53.4	2	5	112	0.00	30.062 
07:30	72.1	72.1	72.1	52	53.5	2	3	90	0.00	30.063 
07:35	72.5	72.5	72.5	52	53.9	1	3	90	0.00	30.063 
07:40	73.0	73.0	73.0	50	53.2	2	5	112	0.00	30.064 
07:45	73.3	73.3	73.3	50	53.5	2	4	90	0.00	30.063 
07:50	73.5	73.5	73.5	50	53.7	2	6	90	0.00	30.061 
07:55	74.0	74.0	74.0	50	54.2	1	4	112	0.00	30.061 
08:00	74.6	74.6	74.6	48	53.6	1	4	90	0.00	30.059 
08:05	74.9	74.9	74.9	46	52.7	3	6	112	0.00	30.061 
08:10	74.7	74.7	74.7	46	52.5	3	7	90	0.00	30.059 
08:15	74.7	74.7	74.7	47	53.1	3	7	90	0.00	30.062 
08:20	75.1	75.1	77.7	48	54.1	2	5	90	0.00	30.063 
08:25	75.4	75.4	77.8	47	53.7	3	5	112	0.00	30.061 
08:30	75.8	75.8	77.9	44	52.3	3	5	90	0.00	30.061 
08:35	76.3	76.3	78.1	46	54.0	2	4	112	0.00	30.062 
08:40	76.5	76.5	78.2	44	52.9	3	6	90	0.00	30.057 
08:45	76.0	76.0	78.0	45	53.1	3	6	90	0.00	30.060 
08:50	75.8	75.8	77.9	45	52.9	3	5	90	0.00	30.057 
08:55	76.3	76.3	78.1	46	54.0	2	6	112	0.00	30.054 
09:00	77.2	77.2	78.5	45	54.2	2	4	90	0.00	30.053 
09:05	77.2	77.2	78.5	43	52.9	3	7	112	0.00	30.056 
09:10	77.6	77.6	78.8	45	54.6	2	6	90	0.00	30.058 
09:15	77.9	77.9	78.8	42	52.9	2	5	112	0.00	30.054 
09:20	78.6	78.6	79.2	43	54.2	2	6	112	0.00	30.052 
09:25	78.6	78.6	79.1	41	52.9	3	7	90	0.00	30.052 
09:30	78.6	78.6	79.2	42	53.6	3	7	90	0.00	30.051 
09:35	79.0	79.0	79.4	42	53.9	2	6	112	0.00	30.050 
09:40	79.8	79.8	80.0	42	54.6	2	4	112	0.00	30.050 
09:45	80.1	80.1	79.8	38	52.2	3	9	90	0.00	30.049 
09:50	80.1	80.1	80.0	40	53.6	3	9	90	0.00	30.046 
09:55	80.3	80.3	80.1	39	53.1	3	6	90	0.00	30.043 
10:00	80.5	80.5	79.9	36	51.1	3	6	112	0.00	30.042 
10:05	80.9	80.9	80.5	39	53.6	2	5	90	0.00	30.041 
10:10	81.4	81.4	80.5	35	51.1	2	6	90	0.00	30.044 
10:15	81.6	81.6	81.0	39	54.2	2	6	90	0.00	30.039 
10:20	81.8	81.8	81.0	37	53.0	3	8	90	0.00	30.042 
10:25	81.6	81.6	80.9	38	53.5	2	6	112	0.00	30.040 
10:30	82.0	82.0	81.2	38	53.9	2	5	90	0.00	30.038 
10:35	82.4	82.4	81.7	39	54.9	2	5	90	0.00	30.040 
10:40	82.8	82.8	81.7	36	53.1	1	3	90	0.00	30.039 
10:45	83.2	83.2	82.0	36	53.4	2	4	90	0.00	30.038 
10:50	83.6	83.6	82.4	36	53.8	2	4	112	0.00	30.037 
10:55	84.1	84.1	83.2	39	56.4	1	3	112	0.00	30.036 
11:00	84.5	84.5	83.3	37	55.3	1	5	112	0.00	30.034 
11:05	84.7	84.7	83.1	34	53.2	1	4	90	0.00	30.035 
11:10	85.1	85.1	83.9	37	55.9	1	4	90	0.00	30.034 
11:15	85.5	85.5	83.4	31	51.4	1	4	68	0.00	30.033 
11:20	85.9	85.9	83.8	31	51.7	1	4	112	0.00	30.030 
11:25	86.1	86.1	84.0	31	51.9	2	5	112	0.00	30.030 
11:30	85.7	85.7	84.0	34	54.1	2	5	90	0.00	30.028 
11:35	85.3	85.3	83.2	31	51.2	2	6	112	0.00	30.026 
11:40	85.3	85.3	83.8	35	54.5	3	6	112	0.00	30.022 
11:45	85.7	85.7	84.4	36	55.6	1	5	135	0.00	30.019 
11:50	86.5	86.5	84.4	31	52.2	2	4	135	0.00	30.019 
11:55	86.7	86.7	85.2	35	55.7	3	6	90	0.00	30.020 
12:00	87.0	87.0	85.0	32	53.5	2	6	90	0.00	30.018 
12:05	87.2	87.2	85.4	33	54.6	2	7	90	0.00	30.018 
12:10	87.4	87.4	85.4	32	53.9	2	5	90	0.00	30.018 
12:15	87.2	87.2	85.1	31	52.8	3	5	90	0.00	30.017 
12:20	87.4	87.4	85.3	31	53.0	3	9	90	0.00	30.017 
12:25	87.4	87.4	85.6	33	54.7	2	6	90	0.00	30.017 
12:30	87.6	87.6	85.5	31	53.2	2	4	112	0.00	30.015 
12:35	88.0	88.0	85.7	30	52.6	2	5	90	0.00	30.013 
12:40	88.2	88.2	86.1	31	53.7	2	6	112	0.00	30.011 
12:45	88.2	88.2	85.9	30	52.8	1	6	90	0.00	30.009 
12:50	88.8	88.8	87.2	33	55.9	1	3	90	0.00	30.008 
12:55	89.5	89.5	87.6	31	54.8	2	5	112	0.00	30.005 
13:00	89.0	89.0	86.6	29	52.6	2	4	112	0.00	30.003 
13:05	89.0	89.0	87.0	31	54.4	1	5	112	0.00	30.004 
13:10	89.3	89.3	86.8	28	51.9	2	5	112	0.00	30.003 
13:15	89.3	89.3	86.9	29	52.8	3	6	112	0.00	30.002 
13:20	89.5	89.5	87.6	31	54.8	1	3	112	0.00	29.999 
13:25	89.0	89.0	86.4	28	51.6	3	7	112	0.00	30.000 
13:30	88.8	88.8	86.8	31	54.2	1	3	112	0.00	29.993 
13:35	89.3	89.3	87.3	31	54.7	1	7	112	0.00	29.991 
13:40	89.3	89.3	86.8	28	51.9	2	8	112	0.00	29.990 
13:45	89.3	89.3	86.6	27	50.9	3	10	90	0.00	29.988 
13:50	89.5	89.5	87.0	28	52.0	2	9	90	0.00	29.985 
13:55	89.7	89.7	87.2	28	52.2	2	5	112	0.00	29.984 
14:00	89.5	89.5	87.0	28	52.0	3	6	90	0.00	29.984 
14:05	89.5	89.5	86.8	27	51.1	3	7	112	0.00	29.982 
14:10	89.7	89.7	87.4	29	53.2	3	7	90	0.00	29.982 
14:15	89.9	89.9	87.2	27	51.4	3	6	90	0.00	29.979 
14:20	89.7	89.7	87.2	28	52.2	2	4	90	0.00	29.978 
14:25	89.9	89.9	87.2	27	51.4	3	7	90	0.00	29.974 
14:30	90.1	90.1	87.3	26	50.5	2	4	90	0.00	29.974 
14:35	90.3	90.3	87.5	26	50.7	2	4	90	0.00	29.973 
14:40	90.3	90.3	87.7	27	51.7	1	4	90	0.00	29.973 
14:45	90.1	90.1	87.1	25	49.5	1	6	90	0.00	29.971 
14:50	89.3	89.3	86.9	29	52.8	1	3	112	0.00	29.970 
14:55	89.3	89.3	86.3	25	48.8	2	7	112	0.00	29.969 
15:00	89.7	89.7	86.8	26	50.2	2	6	90	0.00	29.967 
15:05	89.9	89.9	86.9	25	49.3	3	6	90	0.00	29.966 
15:10	90.1	90.1	87.4	27	51.6	3	10	90	0.00	29.960 
15:15	89.7	89.7	87.2	28	52.2	3	9	90	0.00	29.963 
15:20	88.6	88.6	85.9	27	50.3	3	6	112	0.00	29.965 
15:25	87.8	87.8	85.1	27	49.6	1	4	112	0.00	29.961 
15:30	88.0	88.0	85.9	31	53.5	0	3	112	0.00	29.959 
15:35	88.8	88.8	85.9	26	49.5	1	4	112	0.00	29.957 
15:40	89.5	89.5	86.6	26	50.0	5	10	90	0.00	29.956 
15:45	89.0	89.0	86.3	27	50.6	4	9	90	0.00	29.957 
15:50	88.4	88.4	85.8	28	51.1	2	4	90	0.00	29.956 
15:55	88.2	88.2	85.5	27	50.0	2	6	90	0.00	29.955 
16:00	88.6	88.6	86.0	28	51.3	2	5	112	0.00	29.954 
16:05	89.3	89.3	87.1	30	53.8	2	4	90	0.00	29.953 
16:10	89.5	89.5	86.6	26	50.0	3	6	90	0.00	29.951 
16:15	89.7	89.7	87.2	28	52.2	2	4	112	0.00	29.950 
16:20	89.7	89.7	87.2	28	52.2	4	7	112	0.00	29.952 
16:25	89.5	89.5	87.2	29	53.0	2	4	90	0.00	29.953 
16:30	89.7	89.7	87.0	27	51.2	1	5	112	0.00	29.950 
16:35	89.7	89.7	87.2	28	52.2	1	3	90	0.00	29.946 
16:40	89.9	89.9	87.2	27	51.4	1	4	112	0.00	29.945 
16:45	89.9	89.9	87.2	27	51.4	3	7	90	0.00	29.949 
16:50	89.7	89.7	87.0	27	51.2	3	5	90	0.00	29.948 
16:55	89.0	89.0	86.4	28	51.6	3	7	90	0.00	29.951 
17:00	88.8	88.8	86.8	31	54.2	1	4	90	0.00	29.947 
17:05	88.8	88.8	86.2	28	51.4	0	2	202	0.00	29.946 
17:10	88.8	88.8	86.6	30	53.3	1	5	112	0.00	29.943 
17:15	88.8	88.8	86.4	29	52.4	2	5	112	0.00	29.942 
17:20	88.8	88.8	86.2	28	51.4	3	7	90	0.00	29.941 
17:25	88.6	88.6	86.0	28	51.3	3	6	112	0.00	29.941 
17:30	88.4	88.4	85.8	28	51.1	3	6	90	0.00	29.941 
17:35	88.0	88.0	85.4	28	50.8	2	6	112	0.00	29.940 
17:40	87.8	87.8	85.7	31	53.4	1	3	112	0.00	29.939 
17:45	87.8	87.8	85.5	30	52.5	3	5	90	0.00	29.940 
17:50	88.0	88.0	85.9	31	53.5	1	4	68	0.00	29.940 
17:55	88.0	88.0	85.7	30	52.6	1	4	68	0.00	29.941 
18:00	87.8	87.8	85.7	31	53.4	1	2	68	0.00	29.942 
18:05	88.2	88.2	85.8	29	51.9	1	3	68	0.00	29.934 
18:10	88.6	88.6	86.6	31	54.1	1	3	112	0.00	29.934 
18:15	88.6	88.6	86.6	31	54.1	2	4	112	0.00	29.934 
18:20	88.0	88.0	85.9	31	53.5	3	5	90	0.00	29.935 
18:25	87.8	87.8	85.7	31	53.4	2	4	90	0.00	29.934 
18:30	87.4	87.4	85.4	32	53.9	2	5	112	0.00	29.935 
18:35	87.2	87.2	85.1	31	52.8	2	5	90	0.00	29.938 
18:40	86.7	86.7	84.7	32	53.3	2	4	90	0.00	29.938 
18:45	86.1	86.1	84.3	33	53.6	1	4	90	0.00	29.936 
18:50	85.9	85.9	84.1	33	53.4	1	3	90	0.00	29.936 
18:55	85.5	85.5	84.0	35	54.7	1	4	90	0.00	29.936 
19:00	85.1	85.1	83.6	35	54.3	1	4	112	0.00	29.938 
19:05	84.7	84.7	83.4	36	54.8	0	2	112	0.00	29.934 
19:10	84.3	84.3	83.0	36	54.4	1	1	112	0.00	29.938 
19:15	84.1	84.1	82.9	37	55.0	1	3	112	0.00	29.941 
19:20	84.0	84.0	83.0	38	55.6	1	3	112	0.00	29.939 
19:25	83.6	83.6	82.5	37	54.5	1	4	112	0.00	29.940 
19:30	83.4	83.4	82.4	38	55.1	1	2	90	0.00	29.945 
19:35	83.0	83.0	82.5	41	56.8	0	1	90	0.00	29.945 
19:40	82.6	82.6	82.0	40	55.8	0	2	90	0.00	29.946 
19:45	82.2	82.2	81.7	41	56.1	0	2	90	0.00	29.948 
19:50	81.8	81.8	81.4	41	55.8	0	2	90	0.00	29.948 
19:55	81.4	81.4	81.2	42	56.1	0	2	90	0.00	29.947 
20:00	81.1	81.1	81.0	43	56.5	0	1	90	0.00	29.948 
20:05	80.7	80.7	80.8	44	56.7	0	1	90	0.00	29.945 
20:10	80.3	80.3	80.5	44	56.4	0	0	---	0.00	29.947 
20:15	79.6	79.6	80.0	44	55.7	0	0	---	0.00	29.948 
20:20	79.0	79.0	79.6	45	55.8	0	0	---	0.00	29.949 
20:25	78.6	78.6	79.4	46	56.1	0	0	---	0.00	29.949 
20:30	78.1	78.1	79.2	47	56.2	0	0	---	0.00	29.951 
20:35	77.7	77.7	78.9	48	56.4	0	0	---	0.00	29.951 
20:40	77.2	77.2	78.7	49	56.5	0	0	---	0.00	29.951 
20:45	76.8	76.8	78.5	50	56.7	0	0	---	0.00	29.951 
20:50	76.3	76.3	78.2	51	56.8	0	0	---	0.00	29.951 
20:55	75.8	75.8	78.0	51	56.4	0	0	---	0.00	29.953 
21:00	75.3	75.3	77.7	53	57.0	0	0	---	0.00	29.954 
21:05	74.9	74.9	74.9	54	57.1	0	0	---	0.00	29.952 
21:10	74.6	74.6	74.6	56	57.8	0	0	---	0.00	29.952 
21:15	74.2	74.2	74.2	56	57.5	0	0	---	0.00	29.954 
21:20	73.9	73.9	73.9	58	58.2	0	0	---	0.00	29.954 
21:25	73.3	73.3	73.3	58	57.6	0	0	---	0.00	29.955 
21:30	73.0	73.0	73.0	58	57.3	0	0	---	0.00	29.955 
21:35	72.7	72.7	72.7	58	57.1	0	0	---	0.00	29.957 
21:40	72.3	72.3	72.3	58	56.7	0	0	---	0.00	29.959 
21:45	72.0	72.0	72.0	59	56.9	0	0	---	0.00	29.960 
21:50	71.6	71.6	71.6	60	57.0	0	0	---	0.00	29.962 
21:55	71.3	71.3	71.3	61	57.1	0	0	---	0.00	29.963 
22:00	71.1	71.1	71.1	62	57.4	0	0	---	0.00	29.962 
22:05	70.8	70.8	70.8	63	57.6	0	0	---	0.00	29.960 
22:10	70.6	70.6	70.6	64	57.8	0	0	---	0.00	29.960 
22:15	70.3	70.3	70.3	64	57.5	0	0	---	0.00	29.965 
22:20	70.1	70.1	70.1	65	57.8	0	0	---	0.00	29.965 
22:25	69.8	69.8	69.8	66	57.9	0	0	---	0.00	29.967 
22:30	69.6	69.6	69.6	67	58.1	0	0	---	0.00	29.967 
22:35	69.4	69.4	69.4	67	58.0	0	0	---	0.00	29.967 
22:40	69.1	69.1	69.1	67	57.7	0	0	---	0.00	29.967 
22:45	68.9	68.9	68.9	68	57.9	0	0	---	0.00	29.967 
22:50	68.6	68.6	68.6	67	57.2	0	0	---	0.00	29.969 
22:55	68.4	68.4	68.4	68	57.4	0	0	---	0.00	29.971 
23:00	68.1	68.1	68.1	69	57.5	0	0	---	0.00	29.971 
23:05	67.9	67.9	67.9	69	57.3	0	0	---	0.00	29.970 
23:10	67.9	67.9	67.9	70	57.7	0	0	---	0.00	29.970 
23:15	67.8	67.8	67.8	70	57.6	0	0	---	0.00	29.969 
23:20	67.6	67.6	67.6	70	57.5	0	0	---	0.00	29.967 
23:25	67.6	67.6	67.6	70	57.5	0	0	---	0.00	29.967 
23:30	67.3	67.3	67.3	70	57.2	0	0	---	0.00	29.966 
23:35	67.1	67.1	67.1	70	57.0	0	0	---	0.00	29.966 
23:40	66.9	66.9	66.9	71	57.2	0	0	---	0.00	29.966 
23:45	66.8	66.8	66.8	71	57.1	0	0	---	0.00	29.965 
23:50	66.6	66.6	66.6	73	57.7	0	0	---	0.00	29.963 
23:55	66.6	66.6	66.6	73	57.7	0	0	---	0.00	29.964 

CoCoRaHS
IN-AL-39
A2 Web Hosting
Creative Commons License
GoDaddy
Look for:

loaded 2017-10-19 14:21:55 • last modified 2010-11-18 10:43:29
Privacy PolicyDisclaimer
• wx.awcolley.com is powered by PmWiki v.2002016 •
• all content (unless otherwise noted) © 2017 A W Colley